createdAt,value
2019-02-16T00:01:59.790Z,18.55
2019-02-16T00:04:28.947Z,19.80
2019-02-16T00:06:57.859Z,20.40
2019-02-16T00:09:26.725Z,19.57
2019-02-16T00:11:55.676Z,19.65
2019-02-16T00:14:24.602Z,20.88
2019-02-16T00:16:53.482Z,18.95
2019-02-16T00:19:22.447Z,18.63
2019-02-16T00:21:51.238Z,19.35
2019-02-16T00:24:20.022Z,18.32
2019-02-16T00:26:48.936Z,18.40
2019-02-16T00:29:17.794Z,17.80
2019-02-16T00:31:46.646Z,18.20
2019-02-16T00:34:15.518Z,18.40
2019-02-16T00:36:44.361Z,19.30
2019-02-16T00:39:13.403Z,19.00
2019-02-16T00:41:42.230Z,19.30
2019-02-16T00:44:11.087Z,22.77
2019-02-16T00:46:39.949Z,21.68
2019-02-16T00:49:08.867Z,21.70
2019-02-16T00:51:37.702Z,21.68
2019-02-16T00:54:06.697Z,21.05
2019-02-16T00:56:35.515Z,22.48
2019-02-16T00:59:04.423Z,19.92
2019-02-16T01:01:33.432Z,20.52
2019-02-16T01:04:02.348Z,22.73
2019-02-16T01:06:31.377Z,23.00
2019-02-16T01:09:00.196Z,22.62
2019-02-16T01:11:29.095Z,23.55
2019-02-16T01:13:57.984Z,22.40
2019-02-16T01:16:26.856Z,23.92
2019-02-16T01:18:55.760Z,23.63
2019-02-16T01:21:24.648Z,24.20
2019-02-16T01:23:53.440Z,25.25
2019-02-16T01:26:22.383Z,23.00
2019-02-16T01:28:51.646Z,22.98
2019-02-16T01:31:20.676Z,24.05
2019-02-16T01:33:49.570Z,22.87
2019-02-16T01:36:18.431Z,24.37
2019-02-16T01:38:47.274Z,23.77
2019-02-16T01:41:16.050Z,23.50
2019-02-16T01:43:44.879Z,23.00
2019-02-16T01:46:13.667Z,25.20
2019-02-16T01:48:42.588Z,26.77
2019-02-16T01:51:11.396Z,26.85
2019-02-16T01:53:40.260Z,25.15
2019-02-16T01:56:09.127Z,26.23
2019-02-16T01:58:37.966Z,25.05
2019-02-16T02:01:06.946Z,25.40
2019-02-16T02:03:35.882Z,27.48
2019-02-16T02:06:04.818Z,27.05
2019-02-16T02:08:33.778Z,24.70
2019-02-16T02:11:02.557Z,24.30
2019-02-16T02:13:31.817Z,24.80
2019-02-16T02:16:00.770Z,23.73
2019-02-16T02:18:29.611Z,24.20
2019-02-16T02:20:58.533Z,22.00
2019-02-16T02:23:27.358Z,21.80
2019-02-16T02:25:56.171Z,21.33
2019-02-16T02:28:25.141Z,21.45
2019-02-16T02:30:54.017Z,20.43
2019-02-16T02:33:22.792Z,20.60
2019-02-16T02:35:51.634Z,19.92
2019-02-16T02:38:20.472Z,21.52
2019-02-16T02:40:49.262Z,21.65
2019-02-16T02:43:18.098Z,22.67
2019-02-16T02:45:47.096Z,22.32
2019-02-16T02:48:16.017Z,22.17
2019-02-16T02:50:44.866Z,22.05
2019-02-16T02:53:13.965Z,20.95
2019-02-16T02:55:42.894Z,20.75
2019-02-16T02:58:11.767Z,20.75
2019-02-16T03:00:40.675Z,21.87
2019-02-16T03:03:09.479Z,22.50
2019-02-16T03:05:38.329Z,24.23
2019-02-16T03:08:07.111Z,21.27
2019-02-16T03:10:35.895Z,21.27
2019-02-16T03:13:04.792Z,19.80
2019-02-16T03:15:33.708Z,21.30
2019-02-16T03:18:02.512Z,19.00
2019-02-16T03:20:31.385Z,19.62
2019-02-16T03:23:14.218Z,20.20
2019-02-16T03:25:46.466Z,20.08
2019-02-16T03:28:42.351Z,19.00
2019-02-16T03:31:51.422Z,19.17
2019-02-16T03:34:28.003Z,18.12
2019-02-16T03:37:24.615Z,17.07
2019-02-16T03:39:53.519Z,18.80
2019-02-16T03:42:22.335Z,18.17
2019-02-16T03:44:51.250Z,17.17
2019-02-16T03:47:20.069Z,18.20
2019-02-16T03:49:48.847Z,19.23
2019-02-16T03:52:17.654Z,20.08
2019-02-16T03:54:46.428Z,20.35
2019-02-16T03:57:15.280Z,20.15
2019-02-16T03:59:44.115Z,19.92
2019-02-16T04:02:12.977Z,22.25
2019-02-16T04:04:41.953Z,20.85
2019-02-16T04:07:10.873Z,22.52
2019-02-16T04:09:39.853Z,20.85
2019-02-16T04:12:08.660Z,19.35
2019-02-16T04:14:37.448Z,21.82
2019-02-16T04:17:06.266Z,20.10
2019-02-16T04:19:35.065Z,19.80
2019-02-16T04:22:04.066Z,20.02
2019-02-16T04:24:32.895Z,20.20
2019-02-16T04:27:01.660Z,20.03
2019-02-16T04:29:30.673Z,18.07
2019-02-16T04:31:59.527Z,17.47
2019-02-16T04:34:28.386Z,17.70
2019-02-16T04:36:57.253Z,19.95
2019-02-16T04:39:26.118Z,19.10
2019-02-16T04:41:54.957Z,18.00
2019-02-16T04:44:23.844Z,19.30
2019-02-16T04:46:52.706Z,20.20
2019-02-16T04:49:21.573Z,18.87
2019-02-16T04:52:09.673Z,18.23
2019-02-16T04:54:40.337Z,18.48
2019-02-16T04:57:09.422Z,17.30
2019-02-16T04:59:38.304Z,17.27
2019-02-16T05:02:07.176Z,17.87
2019-02-16T05:04:36.089Z,18.50
2019-02-16T05:07:04.908Z,17.07
2019-02-16T05:09:33.670Z,18.82
2019-02-16T05:12:02.490Z,17.50
2019-02-16T05:14:31.620Z,17.50
2019-02-16T05:17:00.410Z,17.07
2019-02-16T05:19:29.308Z,17.35
2019-02-16T05:21:58.169Z,16.70
2019-02-16T05:24:26.975Z,15.88
2019-02-16T05:26:55.760Z,16.45
2019-02-16T05:29:24.576Z,16.97
2019-02-16T05:31:53.421Z,18.05
2019-02-16T05:34:22.355Z,16.30
2019-02-16T05:36:51.234Z,16.65
2019-02-16T05:39:20.072Z,17.57
2019-02-16T05:41:48.892Z,17.17
2019-02-16T05:44:17.770Z,17.07
2019-02-16T05:46:46.635Z,16.90
2019-02-16T05:49:15.613Z,17.50
2019-02-16T05:51:44.509Z,16.20
2019-02-16T05:54:13.428Z,16.25
2019-02-16T05:56:42.212Z,17.87
2019-02-16T05:59:11.011Z,20.12
2019-02-16T06:01:39.891Z,16.55
2019-02-16T06:04:08.866Z,19.17
2019-02-16T06:06:37.846Z,17.20
2019-02-16T06:09:06.674Z,17.45
2019-02-16T06:11:35.441Z,16.95
2019-02-16T06:14:04.211Z,17.70
2019-02-16T06:16:32.975Z,18.20
2019-02-16T06:19:01.873Z,17.60
2019-02-16T06:21:30.797Z,18.00
2019-02-16T06:23:59.731Z,16.15
2019-02-16T06:26:28.579Z,16.00
2019-02-16T06:28:57.456Z,16.00
2019-02-16T06:31:26.340Z,17.27
2019-02-16T06:33:55.193Z,16.25
2019-02-16T06:36:37.249Z,18.02
2019-02-16T06:39:06.180Z,18.10
2019-02-16T06:41:35.095Z,18.02
2019-02-16T06:44:03.945Z,18.10
2019-02-16T06:46:32.796Z,16.57
2019-02-16T06:49:01.646Z,15.65
2019-02-16T06:51:30.521Z,17.60
2019-02-16T06:53:59.450Z,17.52
2019-02-16T06:56:45.669Z,18.65
2019-02-16T06:59:14.525Z,18.73
2019-02-16T07:01:43.388Z,20.12
2019-02-16T07:04:12.261Z,20.00
2019-02-16T07:06:41.056Z,19.73
2019-02-16T07:09:10.083Z,17.60
2019-02-16T07:11:39.039Z,21.23
2019-02-16T07:14:07.839Z,22.80
2019-02-16T07:16:55.817Z,18.93
2019-02-16T07:19:27.776Z,16.37
2019-02-16T07:21:56.689Z,18.00
2019-02-16T07:24:26.347Z,17.65
2019-02-16T07:26:55.156Z,16.97
2019-02-16T07:29:24.070Z,16.97
2019-02-16T07:31:52.898Z,15.53
2019-02-16T07:34:21.848Z,17.50
2019-02-16T07:36:50.866Z,14.65
2019-02-16T07:39:19.746Z,15.28
2019-02-16T07:41:48.520Z,16.50
2019-02-16T07:44:45.433Z,19.12
2019-02-16T07:47:20.628Z,16.93
2019-02-16T07:50:08.557Z,16.02
2019-02-16T07:52:55.836Z,15.67
2019-02-16T07:55:57.962Z,15.45
2019-02-16T07:59:04.233Z,18.30
2019-02-16T08:01:45.340Z,17.15
2019-02-16T08:04:39.233Z,16.77
2019-02-16T08:07:25.809Z,16.90
2019-02-16T08:10:08.850Z,18.40
2019-02-16T08:12:48.536Z,17.27
2019-02-16T08:15:39.552Z,17.00
2019-02-16T08:18:48.235Z,17.90
2019-02-16T08:21:29.720Z,15.50
2019-02-16T08:24:13.531Z,16.20
2019-02-16T08:26:51.434Z,16.55
2019-02-16T08:29:32.182Z,16.80
2019-02-16T08:32:14.750Z,14.98
2019-02-16T08:35:05.855Z,18.40
2019-02-16T08:37:54.127Z,17.20
2019-02-16T08:40:47.185Z,13.53
2019-02-16T08:43:41.425Z,13.62
2019-02-16T08:46:28.409Z,13.38
2019-02-16T08:49:18.962Z,13.22
2019-02-16T08:52:09.762Z,55.13
2019-02-16T08:54:49.404Z,13.93
2019-02-16T08:57:47.126Z,12.85
2019-02-16T09:00:37.155Z,12.40
2019-02-16T09:03:25.270Z,10.13
2019-02-16T09:06:16.084Z,10.88
2019-02-16T09:09:04.082Z,9.68
2019-02-16T09:11:44.640Z,9.28
2019-02-16T09:14:50.956Z,8.78
2019-02-16T09:17:33.790Z,8.53
2019-02-16T09:20:34.000Z,8.55
2019-02-16T09:23:13.933Z,9.13
2019-02-16T09:26:04.588Z,7.60
2019-02-16T09:28:58.316Z,7.40
2019-02-16T09:31:52.287Z,7.10
2019-02-16T09:34:31.474Z,7.05
2019-02-16T09:37:29.005Z,6.60
2019-02-16T09:40:18.942Z,6.87
2019-02-16T09:42:53.365Z,7.12
2019-02-16T09:45:40.563Z,6.50
2019-02-16T09:48:28.678Z,6.70
2019-02-16T09:51:22.749Z,6.07
2019-02-16T09:54:09.497Z,6.78
2019-02-16T09:56:55.912Z,6.75
2019-02-16T09:59:39.327Z,5.50
2019-02-16T10:02:35.564Z,5.80
2019-02-16T10:05:33.568Z,6.10
2019-02-16T10:08:13.598Z,5.60
2019-02-16T10:10:51.956Z,6.05
2019-02-16T10:13:39.979Z,5.20
2019-02-16T10:16:33.513Z,6.47
2019-02-16T10:19:11.308Z,5.50
2019-02-16T10:21:56.056Z,4.55
2019-02-16T10:24:47.253Z,3.90
2019-02-16T10:27:34.791Z,4.25
2019-02-16T10:30:25.546Z,5.85
2019-02-16T10:33:19.617Z,4.17
2019-02-16T10:36:13.690Z,4.30
2019-02-16T10:39:07.635Z,4.37
2019-02-16T10:41:54.509Z,4.15
2019-02-16T10:44:35.630Z,4.20
2019-02-16T10:47:26.816Z,4.10
2019-02-16T10:50:33.556Z,4.60
2019-02-16T10:53:27.839Z,4.10
2019-02-16T10:56:03.889Z,5.05
2019-02-16T10:58:52.290Z,4.78
2019-02-16T11:01:42.051Z,4.80
2019-02-16T11:04:38.124Z,4.50
2019-02-16T11:07:11.435Z,4.20
2019-02-16T11:09:45.433Z,4.47
2019-02-16T11:12:45.446Z,4.25
2019-02-16T11:15:24.833Z,3.90
2019-02-16T11:18:11.402Z,4.22
2019-02-16T11:20:58.267Z,4.22
2019-02-16T11:23:58.350Z,3.83
2019-02-16T11:26:44.039Z,4.40
2019-02-16T11:29:39.814Z,7.67
2019-02-16T11:32:30.940Z,5.90
2019-02-16T11:35:21.946Z,4.70
2019-02-16T11:37:57.524Z,4.60
2019-02-16T11:40:41.661Z,4.50
2019-02-16T11:43:27.588Z,4.50
2019-02-16T11:46:14.284Z,4.90
2019-02-16T11:49:01.008Z,4.00
2019-02-16T11:51:57.742Z,3.77
2019-02-16T11:54:33.742Z,4.08
2019-02-16T11:57:20.585Z,3.62
2019-02-16T11:59:58.570Z,3.77
2019-02-16T12:02:42.799Z,4.47
2019-02-16T12:05:35.199Z,3.72
2019-02-16T12:08:22.213Z,3.80
2019-02-16T12:11:05.114Z,3.25
2019-02-16T12:13:54.953Z,4.12
2019-02-16T12:16:37.069Z,3.67
2019-02-16T12:19:23.808Z,4.20
2019-02-16T12:22:13.896Z,3.70
2019-02-16T12:25:05.681Z,3.83
2019-02-16T12:27:49.094Z,4.00
